createdAt,value
2022-10-31T00:01:56.302Z,70.30
2022-10-31T00:04:24.275Z,73.13
2022-10-31T00:06:52.221Z,74.70
2022-10-31T00:09:20.314Z,74.50
2022-10-31T00:11:48.196Z,64.78
2022-10-31T00:14:16.142Z,68.78
2022-10-31T00:16:45.394Z,72.60
2022-10-31T00:19:13.314Z,70.60
2022-10-31T00:21:41.311Z,73.85
2022-10-31T00:24:09.998Z,73.38
2022-10-31T00:26:37.916Z,71.22
2022-10-31T00:29:05.986Z,71.68
2022-10-31T00:31:35.214Z,78.65
2022-10-31T00:34:05.010Z,83.07
2022-10-31T00:36:32.948Z,76.57
2022-10-31T00:39:03.801Z,78.72
2022-10-31T00:41:31.773Z,79.00
2022-10-31T00:43:59.839Z,82.10
2022-10-31T00:46:27.757Z,71.75
2022-10-31T00:48:55.793Z,80.65
2022-10-31T00:51:25.221Z,78.23
2022-10-31T00:53:53.260Z,72.82
2022-10-31T00:56:21.284Z,73.63
2022-10-31T00:58:49.508Z,68.88
2022-10-31T01:01:17.563Z,64.13
2022-10-31T01:03:45.628Z,63.57
2022-10-31T01:06:15.467Z,59.45
2022-10-31T01:08:45.295Z,64.95
2022-10-31T01:11:18.895Z,62.90
2022-10-31T01:13:47.229Z,60.92
2022-10-31T01:16:17.636Z,63.97
2022-10-31T01:18:45.955Z,59.38
2022-10-31T01:21:16.428Z,63.85
2022-10-31T01:23:48.122Z,59.58
2022-10-31T01:26:18.130Z,60.85
2022-10-31T01:28:48.517Z,53.33
2022-10-31T01:31:18.032Z,55.72
2022-10-31T01:33:46.240Z,54.38
2022-10-31T01:36:19.938Z,58.70
2022-10-31T01:38:53.505Z,54.92
2022-10-31T01:41:24.261Z,56.85
2022-10-31T01:44:01.358Z,55.85
2022-10-31T01:46:34.590Z,55.03
2022-10-31T01:49:04.690Z,57.17
2022-10-31T01:51:41.760Z,55.22
2022-10-31T01:54:17.804Z,54.13
2022-10-31T01:56:50.369Z,57.17
2022-10-31T01:59:21.987Z,57.65
2022-10-31T02:01:54.205Z,59.00
2022-10-31T02:04:25.139Z,53.85
2022-10-31T02:07:00.955Z,60.33
2022-10-31T02:09:34.408Z,57.85
2022-10-31T02:12:04.469Z,71.60
2022-10-31T02:14:33.812Z,61.80
2022-10-31T02:19:49.094Z,61.95
2022-10-31T02:22:23.517Z,56.42
2022-10-31T02:25:05.012Z,55.75
2022-10-31T02:28:10.617Z,56.42
2022-10-31T02:30:58.067Z,65.47
2022-10-31T02:33:28.334Z,59.75
2022-10-31T02:36:06.933Z,59.47
2022-10-31T02:38:47.893Z,62.58
2022-10-31T02:41:29.887Z,58.80
2022-10-31T02:44:10.595Z,58.13
2022-10-31T02:46:49.017Z,62.38
2022-10-31T02:49:28.940Z,62.08
2022-10-31T02:51:57.287Z,62.20
2022-10-31T02:54:27.355Z,58.45
2022-10-31T02:57:01.955Z,68.07
2022-10-31T02:59:32.371Z,65.28
2022-10-31T03:02:20.638Z,66.47
2022-10-31T03:05:04.623Z,74.20
2022-10-31T03:07:40.788Z,73.40
2022-10-31T03:10:18.762Z,66.68
2022-10-31T03:12:55.489Z,68.60
2022-10-31T03:15:27.619Z,67.13
2022-10-31T03:18:02.125Z,68.43
2022-10-31T03:20:38.718Z,68.65
2022-10-31T03:23:13.215Z,67.88
2022-10-31T03:25:43.085Z,71.07
2022-10-31T03:28:14.006Z,68.47
2022-10-31T03:30:46.358Z,64.38
2022-10-31T03:33:23.571Z,59.83
2022-10-31T03:35:54.746Z,69.40
2022-10-31T03:38:24.276Z,68.95
2022-10-31T03:40:58.091Z,66.78
2022-10-31T03:43:34.329Z,65.28
2022-10-31T03:46:05.152Z,68.18
2022-10-31T03:48:35.820Z,74.57
2022-10-31T03:51:12.788Z,73.15
2022-10-31T03:53:47.587Z,69.18
2022-10-31T03:58:57.694Z,70.45
2022-10-31T04:01:28.360Z,75.50
2022-10-31T04:03:59.813Z,78.57
2022-10-31T04:06:28.827Z,77.60
2022-10-31T04:09:01.399Z,73.38
2022-10-31T04:11:33.586Z,76.55
2022-10-31T04:14:23.478Z,78.18
2022-10-31T04:16:52.289Z,83.13
2022-10-31T04:19:26.369Z,79.07
2022-10-31T04:21:54.477Z,81.40
2022-10-31T04:24:22.741Z,72.07
2022-10-31T04:26:50.725Z,83.57
2022-10-31T04:29:21.272Z,82.95
2022-10-31T04:31:49.325Z,85.50
2022-10-31T04:34:17.602Z,86.30
2022-10-31T04:36:47.172Z,84.22
2022-10-31T04:39:22.683Z,83.28
2022-10-31T04:42:16.284Z,81.77
2022-10-31T04:44:44.304Z,80.53
2022-10-31T04:47:12.292Z,82.25
2022-10-31T04:49:40.290Z,84.72
2022-10-31T04:52:11.079Z,87.15
2022-10-31T04:54:39.034Z,88.28
2022-10-31T04:57:42.833Z,84.68
2022-10-31T05:00:12.394Z,87.45
2022-10-31T05:02:46.134Z,84.47
2022-10-31T05:05:14.798Z,78.88
2022-10-31T05:07:45.601Z,86.45
2022-10-31T05:10:17.264Z,93.43
2022-10-31T05:12:49.183Z,83.63
2022-10-31T05:15:35.838Z,85.22
2022-10-31T05:18:23.929Z,85.75
2022-10-31T05:20:54.744Z,82.82
2022-10-31T05:23:31.330Z,91.88
2022-10-31T05:26:01.292Z,84.18
2022-10-31T05:28:29.327Z,80.90
2022-10-31T05:30:57.391Z,91.15
2022-10-31T05:33:25.956Z,84.55
2022-10-31T05:36:12.456Z,86.82
2022-10-31T05:38:47.906Z,94.28
2022-10-31T05:41:25.338Z,89.72
2022-10-31T05:43:56.485Z,92.43
2022-10-31T05:46:29.860Z,83.70
2022-10-31T05:49:16.295Z,82.90
2022-10-31T05:52:02.974Z,86.72
2022-10-31T05:54:48.734Z,86.35
2022-10-31T05:57:16.687Z,95.25
2022-10-31T05:59:44.638Z,92.35
2022-10-31T06:02:12.616Z,95.40
2022-10-31T06:05:16.006Z,91.68
2022-10-31T06:07:44.684Z,101.50
2022-10-31T06:10:14.910Z,96.53
2022-10-31T06:12:43.087Z,101.78
2022-10-31T06:15:25.090Z,90.82
2022-10-31T06:18:03.214Z,85.88
2022-10-31T06:20:35.603Z,88.88
2022-10-31T06:23:05.990Z,90.35
2022-10-31T06:25:37.787Z,83.78
2022-10-31T06:28:06.900Z,87.38
2022-10-31T06:30:45.933Z,90.28
2022-10-31T06:33:13.891Z,87.45
2022-10-31T06:35:47.960Z,88.35
2022-10-31T06:38:17.429Z,86.13
2022-10-31T06:40:46.820Z,87.25
2022-10-31T06:43:37.356Z,90.03
2022-10-31T06:46:28.071Z,85.63
2022-10-31T06:49:16.281Z,80.55
2022-10-31T06:51:52.335Z,94.57
2022-10-31T06:54:20.322Z,88.93
2022-10-31T06:56:50.087Z,94.72
2022-10-31T06:59:18.803Z,93.35
2022-10-31T07:02:13.528Z,86.47
2022-10-31T07:04:43.999Z,94.97
2022-10-31T07:07:15.331Z,95.88
2022-10-31T07:09:43.989Z,87.10
2022-10-31T07:12:18.067Z,91.97
2022-10-31T07:14:55.344Z,97.95
2022-10-31T07:17:29.749Z,97.50
2022-10-31T07:20:00.792Z,92.93
2022-10-31T07:22:34.877Z,87.05
2022-10-31T07:25:04.956Z,89.53
2022-10-31T07:27:55.422Z,99.53
2022-10-31T07:30:23.721Z,102.43
2022-10-31T07:32:56.425Z,97.40
2022-10-31T07:35:27.861Z,93.85
2022-10-31T07:38:00.420Z,95.97
2022-10-31T07:43:00.088Z,104.00
2022-10-31T07:46:04.704Z,102.65
2022-10-31T07:48:51.005Z,104.68
2022-10-31T07:51:37.255Z,103.60
2022-10-31T07:54:28.607Z,108.22
2022-10-31T07:56:56.542Z,102.60
2022-10-31T07:59:26.777Z,109.53
2022-10-31T08:01:55.674Z,107.55
2022-10-31T08:04:32.269Z,109.07
2022-10-31T08:07:18.965Z,101.03
2022-10-31T08:09:54.510Z,103.72
2022-10-31T08:12:26.491Z,105.93
2022-10-31T08:14:56.697Z,102.47
2022-10-31T08:17:24.799Z,103.32
2022-10-31T08:19:56.622Z,106.55
2022-10-31T08:22:41.193Z,104.53
2022-10-31T08:25:11.860Z,102.13
2022-10-31T08:27:40.617Z,111.43
2022-10-31T08:30:16.114Z,104.82
2022-10-31T08:33:02.556Z,107.25
2022-10-31T08:35:49.455Z,109.85
2022-10-31T08:38:46.290Z,114.85
2022-10-31T08:41:14.927Z,111.82
2022-10-31T08:43:43.146Z,108.70
2022-10-31T08:46:12.759Z,110.20
2022-10-31T08:48:42.326Z,118.88
2022-10-31T08:51:11.979Z,117.70
2022-10-31T08:53:39.918Z,109.68
2022-10-31T08:56:36.614Z,107.38
2022-10-31T08:59:11.415Z,116.68
2022-10-31T09:01:56.408Z,107.22
2022-10-31T09:04:25.119Z,121.10
2022-10-31T09:09:41.102Z,120.75
2022-10-31T09:12:09.265Z,114.13
2022-10-31T09:14:49.738Z,104.55
2022-10-31T09:17:33.481Z,101.25
2022-10-31T09:20:27.717Z,94.65
2022-10-31T09:23:00.623Z,94.10
2022-10-31T09:25:30.587Z,91.20
2022-10-31T09:28:21.029Z,96.40
2022-10-31T09:30:50.124Z,94.25
2022-10-31T09:33:26.740Z,98.18
2022-10-31T09:36:14.687Z,105.38
2022-10-31T09:38:43.348Z,107.57
2022-10-31T09:41:21.713Z,101.85
2022-10-31T09:43:57.834Z,104.22
2022-10-31T09:46:34.407Z,107.38
2022-10-31T09:49:26.756Z,100.70
2022-10-31T09:52:00.977Z,101.95
2022-10-31T09:54:39.083Z,101.85
2022-10-31T09:57:12.869Z,99.93
2022-10-31T09:59:44.012Z,103.88
2022-10-31T10:02:18.813Z,97.15
2022-10-31T10:04:55.310Z,95.93
2022-10-31T10:07:44.214Z,95.47
2022-10-31T10:10:24.433Z,93.03
2022-10-31T10:13:24.325Z,86.80
2022-10-31T10:16:05.853Z,89.78
2022-10-31T10:18:45.729Z,92.53
2022-10-31T10:21:26.453Z,86.63
2022-10-31T10:24:11.330Z,87.93
2022-10-31T10:26:43.687Z,87.25
2022-10-31T10:29:31.286Z,81.25
2022-10-31T10:32:03.623Z,81.70
2022-10-31T10:34:39.369Z,81.53
2022-10-31T10:37:22.743Z,72.72
2022-10-31T10:39:56.152Z,83.70
2022-10-31T10:42:44.906Z,78.78
2022-10-31T10:48:11.054Z,80.72
2022-10-31T10:50:44.186Z,86.57
2022-10-31T10:53:33.066Z,84.05
2022-10-31T10:58:33.413Z,86.22
2022-10-31T11:01:01.510Z,95.37
2022-10-31T11:03:29.737Z,96.78
2022-10-31T11:05:59.863Z,94.25
2022-10-31T11:08:30.991Z,95.07
2022-10-31T11:11:03.027Z,90.38
2022-10-31T11:13:32.165Z,90.32
2022-10-31T11:18:32.189Z,88.53
2022-10-31T11:21:02.248Z,82.78
2022-10-31T11:23:32.233Z,93.30
2022-10-31T11:26:03.469Z,85.45
2022-10-31T11:28:35.287Z,84.22
2022-10-31T11:31:08.818Z,83.97
2022-10-31T11:33:39.857Z,83.68
2022-10-31T11:36:23.299Z,86.70
2022-10-31T11:38:54.003Z,78.32
2022-10-31T11:41:28.175Z,74.43
2022-10-31T11:43:59.549Z,76.00
2022-10-31T11:46:35.436Z,75.90
2022-10-31T11:49:05.617Z,74.05
2022-10-31T11:51:36.885Z,67.30
2022-10-31T11:54:07.720Z,72.00
2022-10-31T11:56:44.871Z,68.82
2022-10-31T11:59:20.838Z,64.68
2022-10-31T12:01:50.739Z,63.38
2022-10-31T12:04:20.342Z,61.15
2022-10-31T12:06:51.043Z,64.20
2022-10-31T12:09:25.567Z,66.88
2022-10-31T12:12:07.659Z,65.50
2022-10-31T12:14:45.865Z,62.90
2022-10-31T12:17:18.024Z,60.50
2022-10-31T12:19:57.114Z,61.83
2022-10-31T12:22:33.193Z,63.20
2022-10-31T12:25:24.275Z,66.40
2022-10-31T12:28:04.675Z,62.70
2022-10-31T12:30:48.968Z,62.17
2022-10-31T12:33:32.256Z,71.60
2022-10-31T12:36:28.305Z,71.00
2022-10-31T12:39:26.979Z,62.83
2022-10-31T12:42:03.976Z,59.80
2022-10-31T12:44:53.224Z,60.80
2022-10-31T12:47:42.475Z,63.17
2022-10-31T12:50:37.386Z,62.42
2022-10-31T12:56:07.335Z,61.80
2022-10-31T12:58:40.813Z,66.90
2022-10-31T13:01:21.264Z,64.35
2022-10-31T13:03:54.019Z,59.17
2022-10-31T13:06:26.728Z,61.88
2022-10-31T13:08:58.120Z,60.58
2022-10-31T13:11:31.923Z,64.22
2022-10-31T13:14:07.555Z,60.20
2022-10-31T13:16:39.907Z,63.78
2022-10-31T13:19:15.968Z,59.53
2022-10-31T13:21:53.793Z,64.85
2022-10-31T13:24:26.149Z,60.17
2022-10-31T13:26:57.007Z,68.03
2022-10-31T13:29:33.215Z,62.05
2022-10-31T13:32:02.568Z,61.97
2022-10-31T13:34:39.609Z,65.65
2022-10-31T13:37:18.061Z,62.97
2022-10-31T13:42:25.321Z,72.43
2022-10-31T13:44:54.821Z,73.30
2022-10-31T13:47:25.963Z,71.10
2022-10-31T13:49:54.088Z,73.30
2022-10-31T13:52:26.421Z,74.35
2022-10-31T13:54:57.883Z,74.88
2022-10-31T13:57:35.295Z,73.95
2022-10-31T14:00:09.199Z,75.07
2022-10-31T14:02:50.001Z,79.00
2022-10-31T14:05:25.055Z,74.15
2022-10-31T14:07:54.608Z,75.43
2022-10-31T14:10:28.444Z,79.13
2022-10-31T14:13:05.837Z,83.18
2022-10-31T14:15:36.317Z,83.88
2022-10-31T14:18:07.464Z,79.32
2022-10-31T14:20:39.981Z,81.40
2022-10-31T14:23:34.111Z,80.72
2022-10-31T14:26:32.204Z,76.30
2022-10-31T14:29:02.295Z,79.30
2022-10-31T14:31:37.509Z,82.32
2022-10-31T14:34:21.580Z,83.57
2022-10-31T14:37:20.685Z,82.20
2022-10-31T14:40:03.389Z,81.78
2022-10-31T14:42:49.406Z,86.45
2022-10-31T14:45:30.589Z,86.38
2022-10-31T14:48:11.247Z,82.80
2022-10-31T14:50:49.288Z,85.28
2022-10-31T14:53:22.944Z,83.07
2022-10-31T14:55:54.453Z,86.53
2022-10-31T14:58:39.206Z,84.70
2022-10-31T15:01:08.612Z,83.55
2022-10-31T15:03:44.763Z,88.82
2022-10-31T15:06:23.538Z,85.50
2022-10-31T15:08:53.398Z,86.47
2022-10-31T15:11:24.178Z,83.53
2022-10-31T15:13:54.105Z,84.53
2022-10-31T15:16:25.091Z,89.40
2022-10-31T15:19:01.731Z,89.70
2022-10-31T15:21:30.900Z,90.30
2022-10-31T15:24:00.899Z,88.10
2022-10-31T15:26:33.338Z,87.10
2022-10-31T15:29:03.168Z,86.03
2022-10-31T15:31:32.591Z,84.30
2022-10-31T15:34:05.451Z,88.60
2022-10-31T15:36:37.350Z,82.20
2022-10-31T15:39:06.569Z,81.78
2022-10-31T15:41:37.287Z,90.95
2022-10-31T15:44:14.903Z,92.03
2022-10-31T15:46:43.438Z,87.10
2022-10-31T15:49:30.405Z,86.75
2022-10-31T15:52:00.950Z,90.55
2022-10-31T15:54:30.404Z,92.72
2022-10-31T15:56:58.395Z,86.38
2022-10-31T15:59:30.975Z,83.10
2022-10-31T16:02:03.586Z,88.30
2022-10-31T16:04:33.056Z,86.72
2022-10-31T16:07:03.621Z,84.97
2022-10-31T16:09:31.623Z,84.78
2022-10-31T16:12:00.566Z,92.33
2022-10-31T16:17:00.958Z,89.78
2022-10-31T16:19:33.874Z,90.00
2022-10-31T16:22:07.446Z,89.50
2022-10-31T16:24:40.093Z,95.30
2022-10-31T16:27:17.906Z,87.30
2022-10-31T16:29:47.943Z,93.93
2022-10-31T16:32:30.708Z,89.53
2022-10-31T16:35:20.014Z,89.32
2022-10-31T16:37:47.983Z,92.80
2022-10-31T16:40:16.727Z,90.53
2022-10-31T16:42:46.364Z,88.63
2022-10-31T16:45:18.806Z,97.75
2022-10-31T16:47:47.089Z,90.90
2022-10-31T16:50:19.390Z,94.78
2022-10-31T16:55:36.782Z,99.88
2022-10-31T16:58:04.853Z,92.72
2022-10-31T17:00:32.857Z,91.20
2022-10-31T17:03:01.281Z,102.10
2022-10-31T17:05:32.939Z,98.93
2022-10-31T17:08:01.479Z,105.78
2022-10-31T17:10:29.728Z,108.38
2022-10-31T17:13:00.097Z,99.57
2022-10-31T17:15:29.856Z,100.75
2022-10-31T17:17:58.634Z,106.57
2022-10-31T17:22:57.728Z,106.28
2022-10-31T17:25:27.945Z,103.95
2022-10-31T17:27:56.066Z,109.10
2022-10-31T17:30:24.449Z,109.00
2022-10-31T17:32:53.427Z,113.45
2022-10-31T17:35:21.366Z,116.45
2022-10-31T17:37:49.880Z,135.07
2022-10-31T17:40:22.019Z,132.93
2022-10-31T17:42:53.821Z,136.40
2022-10-31T17:45:22.722Z,122.55
2022-10-31T17:47:51.679Z,127.53
2022-10-31T17:52:49.082Z,130.05
2022-10-31T17:57:47.177Z,128.80
2022-10-31T18:00:17.360Z,141.48
2022-10-31T18:02:45.609Z,128.38
2022-10-31T18:05:13.773Z,143.23
2022-10-31T18:07:41.746Z,137.87
2022-10-31T18:10:10.719Z,139.52
2022-10-31T18:12:39.062Z,143.25
2022-10-31T18:15:09.431Z,143.02
2022-10-31T18:17:41.054Z,139.30
2022-10-31T18:20:11.360Z,136.35
2022-10-31T18:22:39.571Z,141.05
2022-10-31T18:25:09.356Z,134.90
2022-10-31T18:27:37.371Z,124.95
2022-10-31T18:30:06.236Z,130.85
2022-10-31T18:32:36.461Z,125.00
2022-10-31T18:35:05.971Z,125.70
2022-10-31T18:37:34.071Z,106.15
2022-10-31T18:40:02.047Z,114.03
2022-10-31T18:42:30.027Z,112.35
2022-10-31T18:45:00.265Z,113.68
2022-10-31T18:47:37.324Z,108.50
2022-10-31T18:50:05.899Z,115.55
2022-10-31T18:52:33.860Z,100.82
2022-10-31T18:55:01.808Z,105.78
2022-10-31T18:57:29.936Z,105.57
2022-10-31T18:59:57.950Z,104.05
2022-10-31T19:02:26.012Z,97.22
2022-10-31T19:04:55.485Z,107.50
2022-10-31T19:07:23.769Z,106.38
2022-10-31T19:09:51.789Z,103.63
2022-10-31T19:12:19.723Z,104.35
2022-10-31T19:14:50.720Z,101.07
2022-10-31T19:17:21.444Z,103.80
2022-10-31T19:19:49.422Z,97.88
2022-10-31T19:22:18.740Z,95.93
2022-10-31T19:24:46.700Z,86.80
2022-10-31T19:27:14.821Z,91.47
2022-10-31T19:29:43.222Z,93.60
2022-10-31T19:32:11.177Z,92.32
2022-10-31T19:34:39.113Z,95.38
2022-10-31T19:37:07.063Z,89.85
2022-10-31T19:39:41.206Z,87.88
2022-10-31T19:42:11.861Z,90.57
2022-10-31T19:44:39.840Z,77.72
2022-10-31T19:47:07.774Z,77.20
2022-10-31T19:49:35.710Z,74.25
2022-10-31T19:52:03.705Z,72.65
2022-10-31T19:54:32.158Z,72.05
2022-10-31T19:57:02.343Z,68.53
2022-10-31T19:59:32.944Z,69.28
2022-10-31T20:02:04.693Z,74.95
2022-10-31T20:04:34.120Z,69.75
2022-10-31T20:07:02.084Z,68.72
2022-10-31T20:09:30.008Z,68.13
2022-10-31T20:11:57.977Z,70.32
2022-10-31T20:14:27.290Z,68.93
2022-10-31T20:16:55.316Z,69.18
2022-10-31T20:19:24.232Z,67.63
2022-10-31T20:24:20.544Z,69.07
2022-10-31T20:26:48.519Z,65.43
2022-10-31T20:29:16.920Z,64.78
2022-10-31T20:31:47.514Z,68.95
2022-10-31T20:34:15.971Z,71.28
2022-10-31T20:36:43.947Z,69.70
2022-10-31T20:39:11.964Z,71.43
2022-10-31T20:41:40.090Z,67.32
2022-10-31T20:44:08.264Z,66.17
2022-10-31T20:46:36.355Z,62.90
2022-10-31T20:49:05.737Z,69.38
2022-10-31T20:51:33.870Z,62.05
2022-10-31T20:54:02.178Z,62.63
2022-10-31T20:56:30.642Z,61.97
2022-10-31T20:58:59.111Z,59.83
2022-10-31T21:01:28.892Z,59.20
2022-10-31T21:03:58.661Z,58.40
2022-10-31T21:06:28.980Z,57.15
2022-10-31T21:08:57.605Z,56.40
2022-10-31T21:11:27.698Z,58.15
2022-10-31T21:13:56.042Z,59.08
2022-10-31T21:16:26.243Z,60.20
2022-10-31T21:18:54.619Z,59.20
2022-10-31T21:21:29.220Z,51.38
2022-10-31T21:24:04.054Z,55.72
2022-10-31T21:26:34.518Z,48.75
2022-10-31T21:29:03.400Z,48.90
2022-10-31T21:31:31.617Z,45.38
2022-10-31T21:33:59.831Z,43.67
2022-10-31T21:36:27.924Z,44.17
2022-10-31T21:38:57.025Z,45.30
2022-10-31T21:41:27.450Z,42.85
2022-10-31T21:43:56.149Z,42.25
2022-10-31T21:46:25.758Z,43.33
2022-10-31T21:48:54.431Z,44.80
2022-10-31T21:51:24.154Z,43.63
2022-10-31T21:54:10.273Z,51.22
2022-10-31T21:56:39.948Z,45.55
2022-10-31T21:59:08.088Z,42.30
2022-10-31T22:01:36.952Z,62.72
2022-10-31T22:04:05.713Z,48.65
2022-10-31T22:06:33.717Z,59.25
2022-10-31T22:09:03.681Z,49.88
2022-10-31T22:11:31.719Z,49.67
2022-10-31T22:14:01.857Z,46.55
2022-10-31T22:16:31.367Z,45.72
2022-10-31T22:19:05.002Z,41.95
2022-10-31T22:21:37.359Z,44.95
2022-10-31T22:24:07.682Z,41.38
2022-10-31T22:26:36.453Z,48.90
2022-10-31T22:29:07.619Z,51.80
2022-10-31T22:31:38.387Z,44.70
2022-10-31T22:34:06.402Z,36.53
2022-10-31T22:36:34.359Z,40.63
2022-10-31T22:39:02.463Z,39.47
2022-10-31T22:41:32.785Z,36.97
2022-10-31T22:44:01.777Z,37.33
2022-10-31T22:46:33.420Z,39.20
2022-10-31T22:49:03.365Z,42.53
2022-10-31T22:51:33.195Z,34.85
2022-10-31T22:54:01.235Z,41.72
2022-10-31T22:56:31.010Z,41.90
2022-10-31T22:58:59.799Z,42.70
2022-10-31T23:01:30.257Z,57.78
2022-10-31T23:04:00.346Z,49.22
2022-10-31T23:06:31.449Z,43.40
2022-10-31T23:09:01.091Z,40.78
2022-10-31T23:11:32.371Z,39.83
2022-10-31T23:14:09.488Z,45.42
2022-10-31T23:16:38.569Z,36.10
2022-10-31T23:19:09.144Z,38.30
2022-10-31T23:21:57.384Z,48.20
2022-10-31T23:24:36.736Z,34.92
2022-10-31T23:29:44.910Z,34.67
2022-10-31T23:32:19.178Z,33.08
2022-10-31T23:34:49.793Z,30.65
2022-10-31T23:37:19.656Z,31.50
2022-10-31T23:39:48.521Z,32.45
2022-10-31T23:42:17.135Z,62.70
2022-10-31T23:44:45.916Z,33.47
2022-10-31T23:47:14.460Z,30.05
2022-10-31T23:49:42.543Z,33.50
2022-10-31T23:52:12.466Z,29.95
2022-10-31T23:54:40.993Z,26.33
2022-10-31T23:57:09.221Z,30.48
2022-10-31T23:59:37.476Z,29.70
